IBE3TM LEMD-KMIA
Flight info
| Callsign | IBE3TM |
|---|---|
| Flight time | N/A |
| Altitude | 36000 |
| Route | STG DCT KOPAS/M080F360 DCT 44N020W/M080F380 44N030W 44N040W 4230N05000W 36N060W/M080F400 DCT BALOO DCT BALTN M329 GRATX/N0455F400 DCT BAAGR DCT FIROL DCT REPEE BNFSH3 |
| Aircraft | A333/H-SDE3GHIJ2J3J5M1RVWXY/LB2D1 |
Departure
| Time | 2026-05-01 08:26 |
|---|---|
| Airport | Adolfo Suárez Madrid–Barajas Airport (LEMD) |
Arrival
| Time | N/A |
|---|---|
| Airport | Miami International Airport (KMIA) |
| Time | Latitude | Longitude | Altitude | Speed | Heading |
|---|---|---|---|---|---|
| 2026-05-01 08:01 | 40.49409 | -3.56883 | 1976 ft | 0 kts | 90° |
| 2026-05-01 08:18 | 40.49410 | -3.56921 | 1977 ft | 3 kts | 96° |
| 2026-05-01 08:19 | 40.49418 | -3.56973 | 1981 ft | 4 kts | 115° |
| 2026-05-01 08:19 | 40.49428 | -3.56994 | 1983 ft | 5 kts | 143° |
| 2026-05-01 08:19 | 40.49439 | -3.57003 | 1981 ft | 4 kts | 179° |
| 2026-05-01 08:19 | 40.49441 | -3.57003 | 1981 ft | 2 kts | 180° |
| 2026-05-01 08:22 | 40.49415 | -3.57002 | 1981 ft | 14 kts | 180° |
| 2026-05-01 08:22 | 40.49376 | -3.57002 | 1979 ft | 0 kts | 180° |
| 2026-05-01 08:23 | 40.49371 | -3.57002 | 1979 ft | 2 kts | 180° |
| 2026-05-01 08:23 | 40.49335 | -3.57005 | 1979 ft | 5 kts | 191° |
| 2026-05-01 08:23 | 40.49310 | -3.57028 | 1983 ft | 4 kts | 226° |
| 2026-05-01 08:24 | 40.49295 | -3.57069 | 1985 ft | 6 kts | 254° |
| 2026-05-01 08:24 | 40.49288 | -3.57145 | 1983 ft | 11 kts | 271° |
| 2026-05-01 08:24 | 40.49285 | -3.57201 | 1984 ft | 0 kts | 263° |
| 2026-05-01 08:24 | 40.49284 | -3.57205 | 1985 ft | 1 kts | 263° |
| 2026-05-01 08:25 | 40.49283 | -3.57442 | 1991 ft | 0 kts | 0° |
| 2026-05-01 08:25 | 40.49311 | -3.57443 | 1990 ft | 16 kts | 358° |
| 2026-05-01 08:25 | 40.49593 | -3.57456 | 1989 ft | 66 kts | 360° |
| 2026-05-01 08:25 | 40.50211 | -3.57459 | 1992 ft | 111 kts | 360° |
| 2026-05-01 08:26 | 40.51127 | -3.57466 | 1998 ft | 152 kts | 359° |
| 2026-05-01 08:26 | 40.52323 | -3.57449 | 2061 ft | 189 kts | 2° |
| 2026-05-01 08:26 | 40.53712 | -3.57435 | 2412 ft | 210 kts | 1° |
| 2026-05-01 08:26 | 40.55254 | -3.57395 | 2926 ft | 228 kts | 8° |
| 2026-05-01 08:27 | 40.56800 | -3.56944 | 3840 ft | 231 kts | 17° |
| 2026-05-01 08:27 | 40.58356 | -3.56339 | 4548 ft | 234 kts | 19° |
| 2026-05-01 08:27 | 40.59936 | -3.55712 | 4933 ft | 244 kts | 17° |
| 2026-05-01 08:27 | 40.61607 | -3.55059 | 5343 ft | 255 kts | 17° |
| 2026-05-01 08:28 | 40.63330 | -3.54428 | 5927 ft | 259 kts | 12° |
| 2026-05-01 08:28 | 40.65137 | -3.54110 | 6524 ft | 264 kts | 5° |
| 2026-05-01 08:28 | 40.66979 | -3.53933 | 7127 ft | 267 kts | 3° |
| 2026-05-01 08:28 | 40.68840 | -3.53777 | 7763 ft | 269 kts | 3° |
| 2026-05-01 08:29 | 40.70695 | -3.53622 | 8393 ft | 272 kts | 2° |
| 2026-05-01 08:29 | 40.72603 | -3.53459 | 9030 ft | 276 kts | 2° |
| 2026-05-01 08:29 | 40.74521 | -3.53610 | 9612 ft | 277 kts | 341° |
| 2026-05-01 08:29 | 40.76163 | -3.54863 | 10124 ft | 278 kts | 309° |
| 2026-05-01 08:30 | 40.77254 | -3.57017 | 10348 ft | 290 kts | 294° |
| 2026-05-01 08:30 | 40.78169 | -3.59481 | 10568 ft | 308 kts | 292° |
| 2026-05-01 08:30 | 40.79111 | -3.62102 | 10807 ft | 325 kts | 293° |
| 2026-05-01 08:30 | 40.79770 | -3.63911 | 10959 ft | 336 kts | 293° |
| 2026-05-01 08:32 | 40.84863 | -3.77561 | 13288 ft | 363 kts | 294° |
| 2026-05-01 08:32 | 40.85987 | -3.80560 | 13823 ft | 366 kts | 294° |
| 2026-05-01 08:33 | 40.87123 | -3.83591 | 14334 ft | 369 kts | 294° |
| 2026-05-01 08:33 | 40.88267 | -3.86648 | 14830 ft | 371 kts | 294° |
| 2026-05-01 08:33 | 40.89414 | -3.89716 | 15332 ft | 374 kts | 294° |
| 2026-05-01 08:33 | 40.90572 | -3.92815 | 15798 ft | 377 kts | 294° |
| 2026-05-01 08:34 | 40.91720 | -3.95894 | 16286 ft | 380 kts | 294° |
| 2026-05-01 08:34 | 40.92890 | -3.99035 | 16765 ft | 383 kts | 295° |
| 2026-05-01 08:34 | 40.94072 | -4.02209 | 17256 ft | 385 kts | 295° |
| 2026-05-01 08:34 | 40.95259 | -4.05399 | 17739 ft | 388 kts | 295° |
| 2026-05-01 08:35 | 40.96451 | -4.08609 | 18222 ft | 390 kts | 295° |
| 2026-05-01 08:35 | 40.97651 | -4.11842 | 18619 ft | 393 kts | 295° |
| 2026-05-01 08:35 | 40.98859 | -4.15101 | 19014 ft | 395 kts | 295° |
| 2026-05-01 08:35 | 41.00072 | -4.18378 | 19415 ft | 398 kts | 295° |
| 2026-05-01 08:36 | 41.01294 | -4.21680 | 19807 ft | 400 kts | 295° |
| 2026-05-01 08:36 | 41.02523 | -4.24989 | 20207 ft | 402 kts | 295° |
| 2026-05-01 08:36 | 41.03762 | -4.28319 | 20581 ft | 404 kts | 295° |
| 2026-05-01 08:36 | 41.05008 | -4.31672 | 20962 ft | 406 kts | 294° |
| 2026-05-01 08:37 | 41.06258 | -4.35038 | 21322 ft | 409 kts | 294° |
| 2026-05-01 08:37 | 41.07515 | -4.38431 | 21681 ft | 411 kts | 294° |
| 2026-05-01 08:37 | 41.08779 | -4.41842 | 22051 ft | 413 kts | 294° |
| 2026-05-01 08:37 | 41.10046 | -4.45269 | 22416 ft | 415 kts | 294° |
| 2026-05-01 08:38 | 41.11320 | -4.48717 | 22775 ft | 417 kts | 294° |
| 2026-05-01 08:38 | 41.12598 | -4.52181 | 23120 ft | 419 kts | 294° |
| 2026-05-01 08:38 | 41.13881 | -4.55660 | 23469 ft | 421 kts | 294° |
| 2026-05-01 08:38 | 41.15171 | -4.59164 | 23813 ft | 423 kts | 294° |
| 2026-05-01 08:39 | 41.16464 | -4.62683 | 24100 ft | 424 kts | 294° |
| 2026-05-01 08:39 | 41.17321 | -4.65016 | 24300 ft | 425 kts | 294° |
| 2026-05-01 08:40 | 41.25541 | -4.87492 | 26105 ft | 434 kts | 294° |
| 2026-05-01 08:41 | 41.26837 | -4.91053 | 26367 ft | 435 kts | 294° |
| 2026-05-01 08:41 | 41.28172 | -4.94726 | 26644 ft | 436 kts | 294° |
| 2026-05-01 08:41 | 41.29476 | -4.98317 | 26867 ft | 439 kts | 294° |
| 2026-05-01 08:41 | 41.30803 | -5.01978 | 27105 ft | 440 kts | 294° |
| 2026-05-01 08:42 | 41.32134 | -5.05652 | 27368 ft | 442 kts | 294° |
| 2026-05-01 08:42 | 41.33472 | -5.09350 | 27633 ft | 443 kts | 294° |
| 2026-05-01 08:42 | 41.34806 | -5.13042 | 27897 ft | 444 kts | 294° |
| 2026-05-01 08:42 | 41.36146 | -5.16759 | 28126 ft | 445 kts | 294° |
| 2026-05-01 08:43 | 41.37490 | -5.20488 | 28373 ft | 447 kts | 294° |
| 2026-05-01 08:43 | 41.38836 | -5.24229 | 28613 ft | 448 kts | 294° |
| 2026-05-01 08:43 | 41.40183 | -5.27976 | 28847 ft | 450 kts | 294° |
| 2026-05-01 08:43 | 41.41534 | -5.31740 | 29077 ft | 451 kts | 294° |
| 2026-05-01 08:44 | 41.42888 | -5.35517 | 29302 ft | 453 kts | 293° |
| 2026-05-01 08:44 | 41.44248 | -5.39318 | 29501 ft | 455 kts | 293° |
| 2026-05-01 08:44 | 41.45595 | -5.43086 | 29727 ft | 456 kts | 293° |
| 2026-05-01 08:44 | 41.46959 | -5.46907 | 29951 ft | 457 kts | 293° |
| 2026-05-01 08:45 | 41.48327 | -5.50745 | 30178 ft | 458 kts | 293° |
| 2026-05-01 08:45 | 41.49700 | -5.54601 | 30362 ft | 460 kts | 293° |
| 2026-05-01 08:45 | 41.51074 | -5.58465 | 30528 ft | 461 kts | 293° |
| 2026-05-01 08:45 | 41.52473 | -5.62318 | 30703 ft | 463 kts | 296° |
| 2026-05-01 08:46 | 41.54104 | -5.66042 | 30874 ft | 466 kts | 300° |
| 2026-05-01 08:46 | 41.55883 | -5.69657 | 31128 ft | 465 kts | 302° |
| 2026-05-01 08:46 | 41.57731 | -5.73209 | 31375 ft | 465 kts | 303° |
| 2026-05-01 08:46 | 41.59609 | -5.76737 | 31591 ft | 466 kts | 303° |
| 2026-05-01 08:47 | 41.61496 | -5.80270 | 31807 ft | 465 kts | 303° |
| 2026-05-01 08:47 | 41.63368 | -5.83793 | 32064 ft | 464 kts | 303° |
| 2026-05-01 08:47 | 41.65207 | -5.87278 | 32312 ft | 464 kts | 302° |
| 2026-05-01 08:47 | 41.67057 | -5.90809 | 32546 ft | 463 kts | 302° |
| 2026-05-01 08:48 | 41.68899 | -5.94343 | 32769 ft | 462 kts | 302° |
| 2026-05-01 08:48 | 41.70735 | -5.97878 | 32978 ft | 462 kts | 302° |
| 2026-05-01 08:48 | 41.72567 | -6.01413 | 33195 ft | 462 kts | 302° |
| 2026-05-01 08:48 | 41.74394 | -6.04943 | 33407 ft | 461 kts | 302° |
| 2026-05-01 08:49 | 41.76218 | -6.08470 | 33616 ft | 461 kts | 302° |
| 2026-05-01 08:49 | 41.78040 | -6.11999 | 33802 ft | 461 kts | 302° |
| 2026-05-01 08:49 | 41.79870 | -6.15543 | 33947 ft | 462 kts | 302° |
| 2026-05-01 08:49 | 41.81695 | -6.19083 | 34139 ft | 461 kts | 302° |
| 2026-05-01 08:50 | 41.83522 | -6.22628 | 34308 ft | 461 kts | 302° |
| 2026-05-01 08:50 | 41.85341 | -6.26164 | 34475 ft | 461 kts | 302° |
| 2026-05-01 08:50 | 41.87133 | -6.29652 | 34643 ft | 460 kts | 301° |
| 2026-05-01 08:50 | 41.88950 | -6.33190 | 34820 ft | 460 kts | 301° |
| 2026-05-01 08:51 | 41.90759 | -6.36719 | 34999 ft | 459 kts | 301° |
| 2026-05-01 08:51 | 41.92566 | -6.40247 | 35146 ft | 458 kts | 301° |
| 2026-05-01 08:51 | 41.94371 | -6.43775 | 35292 ft | 458 kts | 301° |
| 2026-05-01 08:51 | 41.96175 | -6.47305 | 35439 ft | 458 kts | 301° |
| 2026-05-01 08:52 | 41.97975 | -6.50835 | 35546 ft | 459 kts | 301° |
| 2026-05-01 08:52 | 41.99195 | -6.53227 | 35636 ft | 459 kts | 301° |
| 2026-05-01 08:52 | 42.00974 | -6.56721 | 35781 ft | 458 kts | 301° |
| 2026-05-01 08:52 | 42.02772 | -6.60255 | 35919 ft | 458 kts | 301° |
| 2026-05-01 08:53 | 42.04571 | -6.63794 | 36028 ft | 458 kts | 301° |
| 2026-05-01 08:53 | 42.06367 | -6.67334 | 36141 ft | 458 kts | 301° |
| 2026-05-01 08:53 | 42.09943 | -6.74389 | 36159 ft | 454 kts | 301° |
| 2026-05-01 08:54 | 42.13501 | -6.81427 | 36154 ft | 454 kts | 300° |
| 2026-05-01 08:54 | 42.17047 | -6.88461 | 36155 ft | 454 kts | 300° |
| 2026-05-01 08:55 | 42.20589 | -6.95502 | 36147 ft | 454 kts | 300° |
| 2026-05-01 08:55 | 42.24129 | -7.02555 | 36163 ft | 454 kts | 300° |
| 2026-05-01 08:56 | 42.27665 | -7.09618 | 36147 ft | 454 kts | 300° |
| 2026-05-01 08:56 | 42.31171 | -7.16635 | 36144 ft | 454 kts | 300° |
| 2026-05-01 08:57 | 42.34698 | -7.23709 | 36155 ft | 454 kts | 299° |
| 2026-05-01 08:57 | 42.38218 | -7.30785 | 36168 ft | 454 kts | 299° |
| 2026-05-01 08:58 | 42.41737 | -7.37879 | 36152 ft | 453 kts | 299° |
| 2026-05-01 08:58 | 42.45253 | -7.44983 | 36153 ft | 454 kts | 299° |
| 2026-05-01 08:59 | 42.48769 | -7.52107 | 36157 ft | 454 kts | 299° |
| 2026-05-01 08:59 | 42.52273 | -7.59220 | 36153 ft | 454 kts | 299° |
| 2026-05-01 09:00 | 42.55749 | -7.66292 | 36160 ft | 454 kts | 298° |
| 2026-05-01 09:00 | 42.59247 | -7.73430 | 36160 ft | 454 kts | 298° |
| 2026-05-01 09:01 | 42.62746 | -7.80585 | 36155 ft | 454 kts | 298° |
| 2026-05-01 09:01 | 42.66239 | -7.87742 | 36151 ft | 454 kts | 298° |
| 2026-05-01 09:02 | 42.69727 | -7.94908 | 36153 ft | 454 kts | 298° |
| 2026-05-01 09:02 | 42.73208 | -8.02078 | 36154 ft | 454 kts | 298° |
| 2026-05-01 09:03 | 42.76661 | -8.09207 | 36152 ft | 454 kts | 298° |
| 2026-05-01 09:03 | 42.80128 | -8.16382 | 36154 ft | 454 kts | 298° |
| 2026-05-01 09:04 | 42.83594 | -8.23572 | 36156 ft | 454 kts | 298° |
| 2026-05-01 09:04 | 42.87056 | -8.30768 | 36155 ft | 453 kts | 298° |
| 2026-05-01 09:05 | 42.90511 | -8.37969 | 36164 ft | 454 kts | 298° |
| 2026-05-01 09:05 | 42.93387 | -8.45518 | 36161 ft | 445 kts | 287° |
| 2026-05-01 09:06 | 42.95557 | -8.53416 | 36157 ft | 444 kts | 284° |
| 2026-05-01 09:06 | 42.97590 | -8.61370 | 36159 ft | 444 kts | 284° |
| 2026-05-01 09:07 | 42.99606 | -8.69340 | 36158 ft | 444 kts | 284° |
| 2026-05-01 09:07 | 43.01632 | -8.77310 | 36155 ft | 444 kts | 284° |
| 2026-05-01 09:08 | 43.03661 | -8.85279 | 36153 ft | 444 kts | 284° |
| 2026-05-01 09:08 | 43.05672 | -8.93200 | 36153 ft | 444 kts | 284° |
| 2026-05-01 09:09 | 43.07695 | -9.01186 | 36164 ft | 444 kts | 284° |
| 2026-05-01 09:09 | 43.09708 | -9.09171 | 36174 ft | 444 kts | 284° |
| 2026-05-01 09:10 | 43.11717 | -9.17165 | 36158 ft | 445 kts | 284° |
| 2026-05-01 09:10 | 43.13724 | -9.25184 | 36159 ft | 445 kts | 283° |
| 2026-05-01 09:11 | 43.15730 | -9.33216 | 36158 ft | 445 kts | 283° |
| 2026-05-01 09:11 | 43.17726 | -9.41242 | 36160 ft | 445 kts | 283° |
| 2026-05-01 09:12 | 43.19717 | -9.49273 | 36170 ft | 445 kts | 283° |
| 2026-05-01 09:12 | 43.21703 | -9.57316 | 36159 ft | 445 kts | 283° |
| 2026-05-01 09:13 | 43.23682 | -9.65354 | 36158 ft | 445 kts | 283° |
| 2026-05-01 09:13 | 43.25655 | -9.73398 | 36159 ft | 445 kts | 283° |
| 2026-05-01 09:14 | 43.27609 | -9.81394 | 36162 ft | 445 kts | 283° |
| 2026-05-01 09:14 | 43.29571 | -9.89450 | 36160 ft | 445 kts | 283° |
| 2026-05-01 09:15 | 43.31530 | -9.97524 | 36158 ft | 446 kts | 283° |
| 2026-05-01 09:15 | 43.33484 | -10.05602 | 36157 ft | 445 kts | 283° |
| 2026-05-01 09:16 | 43.35432 | -10.13685 | 36158 ft | 445 kts | 283° |
| 2026-05-01 09:17 | 43.38331 | -10.25770 | 36167 ft | 445 kts | 282° |
| 2026-05-01 09:17 | 43.41229 | -10.37913 | 36158 ft | 445 kts | 282° |
| 2026-05-01 09:18 | 43.44116 | -10.50079 | 36152 ft | 446 kts | 282° |
| 2026-05-01 09:19 | 43.46990 | -10.62252 | 36149 ft | 446 kts | 282° |
| 2026-05-01 09:20 | 43.49851 | -10.74441 | 36149 ft | 446 kts | 282° |
| 2026-05-01 09:21 | 43.53635 | -10.90662 | 36145 ft | 446 kts | 282° |
| 2026-05-01 09:21 | 43.56472 | -11.02906 | 36146 ft | 448 kts | 282° |
| 2026-05-01 09:22 | 43.60250 | -11.19305 | 36149 ft | 448 kts | 282° |
| 2026-05-01 09:23 | 43.63066 | -11.31612 | 36160 ft | 448 kts | 282° |
| 2026-05-01 09:24 | 43.65871 | -11.43950 | 36153 ft | 450 kts | 283° |
| 2026-05-01 09:25 | 43.69590 | -11.60407 | 36149 ft | 450 kts | 283° |
| 2026-05-01 09:26 | 43.72375 | -11.72811 | 36151 ft | 450 kts | 282° |
| 2026-05-01 09:26 | 43.75148 | -11.85236 | 36151 ft | 450 kts | 282° |
| 2026-05-01 09:27 | 43.77892 | -11.97600 | 36148 ft | 450 kts | 282° |
| 2026-05-01 09:28 | 43.79721 | -12.05888 | 36158 ft | 450 kts | 283° |
| 2026-05-01 09:28 | 43.81548 | -12.14193 | 36145 ft | 451 kts | 283° |
| 2026-05-01 09:29 | 43.84281 | -12.26675 | 36149 ft | 451 kts | 283° |
| 2026-05-01 09:30 | 43.87004 | -12.39185 | 36144 ft | 451 kts | 282° |
| 2026-05-01 09:30 | 43.89712 | -12.51706 | 36148 ft | 453 kts | 283° |
| 2026-05-01 09:31 | 43.91503 | -12.60027 | 36138 ft | 453 kts | 283° |
| 2026-05-01 09:32 | 43.94199 | -12.72617 | 36144 ft | 454 kts | 283° |
| 2026-05-01 09:32 | 43.96890 | -12.85253 | 36147 ft | 455 kts | 283° |
| 2026-05-01 09:33 | 43.98678 | -12.93698 | 36145 ft | 455 kts | 283° |
| 2026-05-01 09:34 | 44.00325 | -13.06558 | 36144 ft | 450 kts | 271° |
| 2026-05-01 09:34 | 44.00967 | -13.19559 | 36149 ft | 451 kts | 270° |
| 2026-05-01 09:35 | 44.01528 | -13.32551 | 36146 ft | 451 kts | 270° |
| 2026-05-01 09:36 | 44.01913 | -13.41259 | 36143 ft | 451 kts | 270° |
| 2026-05-01 09:36 | 44.02298 | -13.49976 | 36152 ft | 451 kts | 271° |
| 2026-05-01 09:37 | 44.02678 | -13.58706 | 36139 ft | 453 kts | 270° |
| 2026-05-01 09:37 | 44.03234 | -13.71830 | 36139 ft | 453 kts | 270° |
| 2026-05-01 09:38 | 44.03773 | -13.84895 | 36141 ft | 453 kts | 270° |
| 2026-05-01 09:39 | 44.04300 | -13.98048 | 36140 ft | 456 kts | 270° |
| 2026-05-01 09:39 | 44.04644 | -14.06852 | 36141 ft | 456 kts | 270° |
| 2026-05-01 09:40 | 44.05148 | -14.20051 | 36141 ft | 456 kts | 270° |
| 2026-05-01 09:41 | 44.05421 | -14.27370 | 36137 ft | 456 kts | 270° |
| 2026-05-01 09:41 | 44.05902 | -14.40619 | 36140 ft | 457 kts | 270° |
| 2026-05-01 09:42 | 44.06214 | -14.49447 | 36141 ft | 457 kts | 270° |
| 2026-05-01 09:43 | 44.06773 | -14.67140 | 36138 ft | 459 kts | 270° |
| 2026-05-01 09:43 | 44.06944 | -14.76011 | 36138 ft | 459 kts | 269° |
| 2026-05-01 09:44 | 44.07188 | -14.89278 | 36138 ft | 459 kts | 269° |
| 2026-05-01 09:45 | 44.07355 | -14.98158 | 36145 ft | 459 kts | 270° |
| 2026-05-01 09:45 | 44.07597 | -15.11503 | 36140 ft | 461 kts | 270° |
| 2026-05-01 09:46 | 44.07750 | -15.20417 | 36140 ft | 461 kts | 270° |
| 2026-05-01 09:46 | 44.07896 | -15.29333 | 36140 ft | 461 kts | 270° |
| 2026-05-01 09:47 | 44.08035 | -15.38244 | 36140 ft | 461 kts | 270° |
| 2026-05-01 09:47 | 44.08167 | -15.47156 | 36140 ft | 461 kts | 269° |
| 2026-05-01 09:48 | 44.08292 | -15.56073 | 36140 ft | 461 kts | 269° |
| 2026-05-01 09:48 | 44.08410 | -15.64985 | 36143 ft | 461 kts | 269° |
| 2026-05-01 09:49 | 44.08520 | -15.73843 | 36151 ft | 461 kts | 269° |
| 2026-05-01 09:49 | 44.08625 | -15.82763 | 36144 ft | 462 kts | 270° |
| 2026-05-01 09:50 | 44.08723 | -15.91716 | 36143 ft | 463 kts | 269° |
| 2026-05-01 09:50 | 44.08814 | -16.00680 | 36143 ft | 463 kts | 270° |
| 2026-05-01 09:51 | 44.08897 | -16.09630 | 36143 ft | 463 kts | 269° |
| 2026-05-01 09:51 | 44.08974 | -16.18596 | 36144 ft | 465 kts | 270° |
| 2026-05-01 09:52 | 44.09043 | -16.27602 | 36143 ft | 466 kts | 269° |
| 2026-05-01 09:52 | 44.09107 | -16.36632 | 36146 ft | 466 kts | 269° |
| 2026-05-01 09:53 | 44.09163 | -16.45588 | 36149 ft | 466 kts | 270° |
| 2026-05-01 09:53 | 44.09212 | -16.54604 | 36150 ft | 467 kts | 269° |
| 2026-05-01 09:54 | 44.09253 | -16.63656 | 36148 ft | 469 kts | 270° |
| 2026-05-01 09:54 | 44.09287 | -16.72735 | 36151 ft | 469 kts | 269° |
| 2026-05-01 09:55 | 44.09315 | -16.81812 | 36148 ft | 469 kts | 270° |
| 2026-05-01 09:55 | 44.09336 | -16.90885 | 36152 ft | 469 kts | 270° |
| 2026-05-01 09:56 | 44.09350 | -16.99966 | 36149 ft | 470 kts | 270° |
| 2026-05-01 09:56 | 44.09355 | -17.09063 | 36149 ft | 470 kts | 270° |
| 2026-05-01 09:57 | 44.09354 | -17.18097 | 36154 ft | 468 kts | 269° |
| 2026-05-01 09:57 | 44.09346 | -17.27126 | 36154 ft | 467 kts | 269° |
| 2026-05-01 09:58 | 44.09332 | -17.36166 | 36154 ft | 468 kts | 270° |
| 2026-05-01 09:58 | 44.09309 | -17.45207 | 36154 ft | 468 kts | 270° |
| 2026-05-01 09:59 | 44.09279 | -17.54259 | 36154 ft | 468 kts | 270° |
| 2026-05-01 09:59 | 44.09242 | -17.63304 | 36154 ft | 467 kts | 269° |
| 2026-05-01 10:00 | 44.09198 | -17.72353 | 36157 ft | 468 kts | 270° |
| 2026-05-01 10:00 | 44.09147 | -17.81409 | 36159 ft | 468 kts | 270° |
| 2026-05-01 10:01 | 44.09089 | -17.90472 | 36157 ft | 469 kts | 269° |
| 2026-05-01 10:01 | 44.09023 | -17.99535 | 36157 ft | 468 kts | 269° |
| 2026-05-01 10:02 | 44.08951 | -18.08546 | 36159 ft | 468 kts | 269° |
| 2026-05-01 10:02 | 44.08871 | -18.17594 | 36159 ft | 467 kts | 270° |
| 2026-05-01 10:03 | 44.08785 | -18.26641 | 36159 ft | 468 kts | 269° |
| 2026-05-01 10:03 | 44.08691 | -18.35677 | 36158 ft | 467 kts | 269° |
| 2026-05-01 10:04 | 44.08590 | -18.44701 | 36162 ft | 465 kts | 269° |
| 2026-05-01 10:04 | 44.08483 | -18.53705 | 36162 ft | 465 kts | 270° |
| 2026-05-01 10:05 | 44.08369 | -18.62653 | 36165 ft | 465 kts | 269° |
| 2026-05-01 10:05 | 44.08247 | -18.71651 | 36165 ft | 465 kts | 270° |
| 2026-05-01 10:06 | 44.08118 | -18.80657 | 36165 ft | 465 kts | 269° |
| 2026-05-01 10:06 | 44.07981 | -18.89658 | 36164 ft | 465 kts | 270° |
| 2026-05-01 10:07 | 44.07838 | -18.98658 | 36165 ft | 465 kts | 269° |
| 2026-05-01 10:07 | 44.07688 | -19.07654 | 36165 ft | 465 kts | 270° |
| 2026-05-01 10:08 | 44.07450 | -19.21141 | 36168 ft | 465 kts | 269° |
| 2026-05-01 10:09 | 44.07282 | -19.30135 | 36167 ft | 465 kts | 269° |
| 2026-05-01 10:09 | 44.07109 | -19.39064 | 36167 ft | 465 kts | 269° |
| 2026-05-01 10:10 | 44.06927 | -19.48058 | 36170 ft | 465 kts | 269° |
| 2026-05-01 10:10 | 44.06641 | -19.61542 | 36170 ft | 465 kts | 270° |
| 2026-05-01 10:11 | 44.06442 | -19.70493 | 36173 ft | 462 kts | 269° |
| 2026-05-01 10:11 | 44.06237 | -19.79416 | 36172 ft | 461 kts | 270° |
| 2026-05-01 10:12 | 44.06062 | -19.86817 | 36173 ft | 461 kts | 269° |
| 2026-05-01 10:13 | 44.05695 | -20.01710 | 36169 ft | 461 kts | 269° |
| 2026-05-01 10:13 | 44.05468 | -20.10551 | 36181 ft | 460 kts | 270° |
| 2026-05-01 10:14 | 44.05114 | -20.23877 | 36183 ft | 460 kts | 269° |
| 2026-05-01 10:14 | 44.04870 | -20.32754 | 36181 ft | 459 kts | 269° |
| 2026-05-01 10:15 | 44.04618 | -20.41640 | 36180 ft | 459 kts | 270° |
| 2026-05-01 10:15 | 44.04359 | -20.50489 | 36180 ft | 457 kts | 269° |
| 2026-05-01 10:16 | 44.04092 | -20.59318 | 36185 ft | 458 kts | 270° |
| 2026-05-01 10:17 | 44.03687 | -20.72568 | 36181 ft | 457 kts | 269° |
| 2026-05-01 10:17 | 44.03262 | -20.85756 | 36183 ft | 457 kts | 269° |
| 2026-05-01 10:18 | 44.02824 | -20.98941 | 36185 ft | 453 kts | 269° |
| 2026-05-01 10:19 | 44.02525 | -21.07683 | 36181 ft | 453 kts | 269° |
| 2026-05-01 10:19 | 44.02220 | -21.16436 | 36181 ft | 453 kts | 269° |
| 2026-05-01 10:20 | 44.01750 | -21.29533 | 36188 ft | 453 kts | 268° |
| 2026-05-01 10:20 | 44.01429 | -21.38197 | 36188 ft | 452 kts | 269° |
| 2026-05-01 10:21 | 44.00933 | -21.51296 | 36186 ft | 452 kts | 269° |
| 2026-05-01 10:22 | 44.00423 | -21.64368 | 36191 ft | 451 kts | 268° |
| 2026-05-01 10:23 | 43.99902 | -21.77410 | 36189 ft | 451 kts | 268° |
| 2026-05-01 10:23 | 43.99363 | -21.90468 | 36190 ft | 451 kts | 268° |
| 2026-05-01 10:24 | 43.98624 | -22.07818 | 36193 ft | 449 kts | 268° |
| 2026-05-01 10:25 | 43.97860 | -22.25123 | 36196 ft | 448 kts | 268° |
| 2026-05-01 10:26 | 43.97469 | -22.33770 | 36193 ft | 449 kts | 268° |
| 2026-05-01 10:27 | 43.96668 | -22.51051 | 36198 ft | 449 kts | 268° |
| 2026-05-01 10:28 | 43.96050 | -22.63994 | 36200 ft | 448 kts | 268° |
| 2026-05-01 10:28 | 43.95489 | -22.75488 | 36199 ft | 448 kts | 268° |
| 2026-05-01 10:29 | 43.94843 | -22.88444 | 36200 ft | 448 kts | 268° |
| 2026-05-01 10:30 | 43.93959 | -23.05710 | 36199 ft | 448 kts | 267° |
| 2026-05-01 10:31 | 43.93048 | -23.22977 | 36205 ft | 448 kts | 268° |
| 2026-05-01 10:32 | 43.92347 | -23.35926 | 36206 ft | 449 kts | 267° |
| 2026-05-01 10:33 | 43.91394 | -23.53143 | 36202 ft | 449 kts | 267° |
| 2026-05-01 10:34 | 43.90659 | -23.66097 | 36208 ft | 449 kts | 267° |
| 2026-05-01 10:34 | 43.90161 | -23.74730 | 36208 ft | 449 kts | 266° |
| 2026-05-01 10:35 | 43.89402 | -23.87672 | 36203 ft | 449 kts | 267° |
| 2026-05-01 10:35 | 43.88892 | -23.96243 | 36204 ft | 449 kts | 267° |
| 2026-05-01 10:36 | 43.88108 | -24.09180 | 36210 ft | 449 kts | 266° |
| 2026-05-01 10:37 | 43.87579 | -24.17795 | 36213 ft | 449 kts | 266° |
| 2026-05-01 10:37 | 43.86772 | -24.30710 | 36217 ft | 448 kts | 266° |
| 2026-05-01 10:38 | 43.86227 | -24.39306 | 36209 ft | 448 kts | 266° |
| 2026-05-01 10:38 | 43.85675 | -24.47911 | 36220 ft | 448 kts | 266° |
| 2026-05-01 10:39 | 43.85117 | -24.56502 | 36215 ft | 448 kts | 266° |
| 2026-05-01 10:39 | 43.84553 | -24.65093 | 36215 ft | 448 kts | 266° |
| 2026-05-01 10:40 | 43.83986 | -24.73627 | 36218 ft | 448 kts | 266° |
| 2026-05-01 10:40 | 43.83408 | -24.82223 | 36217 ft | 448 kts | 266° |
| 2026-05-01 10:41 | 43.82825 | -24.90808 | 36221 ft | 448 kts | 266° |
| 2026-05-01 10:42 | 43.81936 | -25.03700 | 36219 ft | 448 kts | 266° |
| 2026-05-01 10:42 | 43.81336 | -25.12285 | 36220 ft | 448 kts | 266° |
| 2026-05-01 10:43 | 43.80731 | -25.20860 | 36222 ft | 448 kts | 266° |
| 2026-05-01 10:43 | 43.80118 | -25.29444 | 36223 ft | 448 kts | 266° |
| 2026-05-01 10:44 | 43.79498 | -25.38031 | 36215 ft | 448 kts | 266° |
| 2026-05-01 10:44 | 43.78873 | -25.46603 | 36223 ft | 448 kts | 266° |
| 2026-05-01 10:45 | 43.78242 | -25.55173 | 36224 ft | 448 kts | 266° |
| 2026-05-01 10:45 | 43.77604 | -25.63745 | 36225 ft | 448 kts | 266° |
| 2026-05-01 10:46 | 43.76959 | -25.72315 | 36228 ft | 448 kts | 266° |
| 2026-05-01 10:46 | 43.76312 | -25.80829 | 36227 ft | 447 kts | 266° |
| 2026-05-01 10:47 | 43.75656 | -25.89373 | 36230 ft | 446 kts | 266° |
| 2026-05-01 10:47 | 43.74995 | -25.97910 | 36230 ft | 446 kts | 266° |
| 2026-05-01 10:48 | 43.74326 | -26.06450 | 36234 ft | 447 kts | 266° |
| 2026-05-01 10:48 | 43.73651 | -26.14990 | 36230 ft | 446 kts | 266° |
| 2026-05-01 10:49 | 43.72970 | -26.23531 | 36230 ft | 446 kts | 266° |
| 2026-05-01 10:49 | 43.72287 | -26.32011 | 36230 ft | 446 kts | 265° |
| 2026-05-01 10:50 | 43.71594 | -26.40540 | 36231 ft | 446 kts | 265° |
| 2026-05-01 10:50 | 43.70894 | -26.49069 | 36230 ft | 446 kts | 265° |
| 2026-05-01 10:51 | 43.70185 | -26.57628 | 36232 ft | 450 kts | 266° |
| 2026-05-01 10:51 | 43.69464 | -26.66269 | 36232 ft | 453 kts | 266° |
| 2026-05-01 10:52 | 43.68733 | -26.74919 | 36233 ft | 453 kts | 265° |
| 2026-05-01 10:52 | 43.68002 | -26.83500 | 36235 ft | 453 kts | 265° |
| 2026-05-01 10:53 | 43.67260 | -26.92137 | 36234 ft | 453 kts | 265° |
| 2026-05-01 10:53 | 43.66511 | -27.00778 | 36230 ft | 453 kts | 265° |
| 2026-05-01 10:54 | 43.65754 | -27.09435 | 36237 ft | 455 kts | 265° |
| 2026-05-01 10:54 | 43.64988 | -27.18115 | 36235 ft | 456 kts | 265° |
| 2026-05-01 10:55 | 43.64214 | -27.26807 | 36226 ft | 455 kts | 265° |
| 2026-05-01 10:55 | 43.63434 | -27.35489 | 36235 ft | 455 kts | 265° |
| 2026-05-01 10:56 | 43.62654 | -27.44092 | 36237 ft | 455 kts | 265° |
| 2026-05-01 10:56 | 43.61863 | -27.52760 | 36240 ft | 455 kts | 265° |
| 2026-05-01 10:57 | 43.61064 | -27.61425 | 36238 ft | 455 kts | 265° |
| 2026-05-01 10:57 | 43.60260 | -27.70073 | 36238 ft | 454 kts | 265° |
| 2026-05-01 10:58 | 43.59452 | -27.78699 | 36240 ft | 453 kts | 265° |
| 2026-05-01 10:58 | 43.58636 | -27.87334 | 36238 ft | 454 kts | 265° |
| 2026-05-01 10:59 | 43.57819 | -27.95914 | 36239 ft | 454 kts | 265° |
| 2026-05-01 10:59 | 43.56991 | -28.04535 | 36239 ft | 453 kts | 265° |
| 2026-05-01 11:00 | 43.56159 | -28.13122 | 36242 ft | 451 kts | 265° |
| 2026-05-01 11:00 | 43.55321 | -28.21714 | 36243 ft | 451 kts | 265° |
| 2026-05-01 11:01 | 43.54477 | -28.30297 | 36241 ft | 453 kts | 265° |
| 2026-05-01 11:01 | 43.53623 | -28.38922 | 36238 ft | 454 kts | 265° |
| 2026-05-01 11:02 | 43.52768 | -28.47469 | 36246 ft | 452 kts | 265° |
| 2026-05-01 11:02 | 43.51904 | -28.56047 | 36248 ft | 452 kts | 265° |
| 2026-05-01 11:03 | 43.51033 | -28.64630 | 36243 ft | 452 kts | 265° |
| 2026-05-01 11:03 | 43.50157 | -28.73201 | 36243 ft | 452 kts | 265° |
| 2026-05-01 11:04 | 43.49274 | -28.81768 | 36247 ft | 451 kts | 265° |
| 2026-05-01 11:04 | 43.48388 | -28.90303 | 36246 ft | 450 kts | 265° |
| 2026-05-01 11:05 | 43.47495 | -28.98842 | 36249 ft | 450 kts | 265° |
| 2026-05-01 11:05 | 43.46595 | -29.07393 | 36246 ft | 451 kts | 265° |
| 2026-05-01 11:06 | 43.45695 | -29.15867 | 36243 ft | 450 kts | 265° |
| 2026-05-01 11:06 | 43.44784 | -29.24388 | 36245 ft | 449 kts | 264° |
| 2026-05-01 11:07 | 43.43411 | -29.37116 | 36247 ft | 450 kts | 264° |
| 2026-05-01 11:07 | 43.42486 | -29.45617 | 36249 ft | 450 kts | 264° |
| 2026-05-01 11:08 | 43.41553 | -29.54138 | 36246 ft | 451 kts | 264° |
| 2026-05-01 11:09 | 43.40135 | -29.66959 | 36246 ft | 452 kts | 264° |
| 2026-05-01 11:09 | 43.39184 | -29.75485 | 36246 ft | 451 kts | 264° |
| 2026-05-01 11:10 | 43.37744 | -29.88285 | 36240 ft | 452 kts | 264° |
| 2026-05-01 11:10 | 43.36781 | -29.96763 | 36246 ft | 451 kts | 264° |
| 2026-05-01 11:11 | 43.35808 | -30.05280 | 36246 ft | 451 kts | 264° |
| 2026-05-01 11:11 | 43.34827 | -30.13806 | 36243 ft | 451 kts | 264° |
| 2026-05-01 11:12 | 43.33840 | -30.22326 | 36239 ft | 452 kts | 264° |
| 2026-05-01 11:12 | 43.32847 | -30.30847 | 36238 ft | 452 kts | 263° |
| 2026-05-01 11:13 | 43.31844 | -30.39391 | 36240 ft | 453 kts | 263° |
| 2026-05-01 11:13 | 43.30836 | -30.47923 | 36246 ft | 453 kts | 264° |
| 2026-05-01 11:14 | 43.29820 | -30.56457 | 36241 ft | 453 kts | 263° |
| 2026-05-01 11:14 | 43.28805 | -30.64934 | 36238 ft | 453 kts | 264° |
| 2026-05-01 11:15 | 43.27777 | -30.73474 | 36244 ft | 454 kts | 263° |
| 2026-05-01 11:15 | 43.26738 | -30.82040 | 36241 ft | 454 kts | 263° |
| 2026-05-01 11:16 | 43.25693 | -30.90597 | 36242 ft | 454 kts | 263° |
| 2026-05-01 11:16 | 43.24642 | -30.99148 | 36240 ft | 455 kts | 263° |
| 2026-05-01 11:17 | 43.23589 | -31.07655 | 36245 ft | 455 kts | 263° |
| 2026-05-01 11:17 | 43.22525 | -31.16211 | 36240 ft | 455 kts | 263° |
| 2026-05-01 11:18 | 43.21455 | -31.24764 | 36241 ft | 455 kts | 263° |
| 2026-05-01 11:18 | 43.20377 | -31.33323 | 36232 ft | 455 kts | 262° |
| 2026-05-01 11:19 | 43.19475 | -31.40432 | 36241 ft | 455 kts | 262° |
| 2026-05-01 11:19 | 43.18382 | -31.48994 | 36244 ft | 456 kts | 263° |
| 2026-05-01 11:20 | 43.17285 | -31.57548 | 36241 ft | 455 kts | 262° |
| 2026-05-01 11:20 | 43.16182 | -31.66089 | 36241 ft | 455 kts | 262° |
| 2026-05-01 11:21 | 43.15072 | -31.74626 | 36243 ft | 454 kts | 261° |
| 2026-05-01 11:21 | 43.13968 | -31.83071 | 36241 ft | 453 kts | 261° |
| 2026-05-01 11:22 | 43.12848 | -31.91596 | 36241 ft | 455 kts | 262° |
| 2026-05-01 11:22 | 43.11722 | -32.00120 | 36243 ft | 455 kts | 262° |
| 2026-05-01 11:23 | 43.10589 | -32.08635 | 36245 ft | 454 kts | 262° |
| 2026-05-01 11:23 | 43.09452 | -32.17131 | 36244 ft | 454 kts | 262° |
| 2026-05-01 11:24 | 43.08311 | -32.25626 | 36235 ft | 454 kts | 261° |
| 2026-05-01 11:25 | 43.06591 | -32.38305 | 36237 ft | 454 kts | 261° |
| 2026-05-01 11:25 | 43.04852 | -32.51033 | 36243 ft | 454 kts | 261° |
| 2026-05-01 11:26 | 43.03092 | -32.63780 | 36245 ft | 455 kts | 261° |
| 2026-05-01 11:27 | 43.01910 | -32.72281 | 36241 ft | 455 kts | 261° |
| 2026-05-01 11:27 | 43.00725 | -32.80768 | 36243 ft | 453 kts | 260° |
| 2026-05-01 11:28 | 42.99539 | -32.89204 | 36243 ft | 451 kts | 260° |
| 2026-05-01 11:28 | 42.98349 | -32.97624 | 36242 ft | 452 kts | 261° |
| 2026-05-01 11:29 | 42.96550 | -33.10273 | 36245 ft | 453 kts | 260° |
| 2026-05-01 11:30 | 42.94749 | -33.22823 | 36244 ft | 449 kts | 259° |
| 2026-05-01 11:30 | 42.93545 | -33.31159 | 36239 ft | 447 kts | 259° |
| 2026-05-01 11:31 | 42.92333 | -33.39500 | 36241 ft | 448 kts | 260° |
| 2026-05-01 11:31 | 42.91116 | -33.47835 | 36236 ft | 448 kts | 260° |
| 2026-05-01 11:32 | 42.89895 | -33.56154 | 36239 ft | 446 kts | 260° |
| 2026-05-01 11:32 | 42.88674 | -33.64432 | 36239 ft | 445 kts | 259° |
| 2026-05-01 11:33 | 42.87447 | -33.72698 | 36237 ft | 445 kts | 259° |
| 2026-05-01 11:33 | 42.86221 | -33.80918 | 36242 ft | 445 kts | 260° |
| 2026-05-01 11:34 | 42.84981 | -33.89191 | 36237 ft | 445 kts | 259° |
| 2026-05-01 11:34 | 42.83734 | -33.97458 | 36236 ft | 444 kts | 259° |
| 2026-05-01 11:35 | 42.82483 | -34.05711 | 36235 ft | 445 kts | 260° |
| 2026-05-01 11:35 | 42.81229 | -34.13946 | 36231 ft | 444 kts | 259° |
| 2026-05-01 11:36 | 42.79968 | -34.22184 | 36224 ft | 444 kts | 259° |
| 2026-05-01 11:36 | 42.78711 | -34.30365 | 36229 ft | 445 kts | 259° |
| 2026-05-01 11:37 | 42.77438 | -34.38605 | 36230 ft | 444 kts | 259° |
| 2026-05-01 11:37 | 42.76158 | -34.46843 | 36231 ft | 444 kts | 259° |
| 2026-05-01 11:38 | 42.74875 | -34.55058 | 36230 ft | 444 kts | 259° |
| 2026-05-01 11:38 | 42.73589 | -34.63255 | 36229 ft | 442 kts | 259° |
| 2026-05-01 11:39 | 42.72297 | -34.71446 | 36226 ft | 443 kts | 258° |
| 2026-05-01 11:39 | 42.71000 | -34.79628 | 36223 ft | 443 kts | 258° |
| 2026-05-01 11:40 | 42.69696 | -34.87813 | 36222 ft | 442 kts | 258° |
| 2026-05-01 11:40 | 42.68398 | -34.95929 | 36226 ft | 442 kts | 258° |
| 2026-05-01 11:41 | 42.67086 | -35.04086 | 36223 ft | 441 kts | 258° |
| 2026-05-01 11:41 | 42.65768 | -35.12238 | 36222 ft | 442 kts | 258° |
| 2026-05-01 11:42 | 42.64445 | -35.20388 | 36224 ft | 442 kts | 258° |
| 2026-05-01 11:42 | 42.63117 | -35.28531 | 36223 ft | 440 kts | 257° |
| 2026-05-01 11:43 | 42.61786 | -35.36653 | 36228 ft | 440 kts | 257° |
| 2026-05-01 11:43 | 42.60450 | -35.44760 | 36220 ft | 440 kts | 257° |
| 2026-05-01 11:44 | 42.58434 | -35.56928 | 36216 ft | 440 kts | 257° |
| 2026-05-01 11:44 | 42.57093 | -35.64978 | 36214 ft | 439 kts | 257° |
| 2026-05-01 11:45 | 42.55739 | -35.73061 | 36215 ft | 440 kts | 256° |
| 2026-05-01 11:45 | 42.54379 | -35.81145 | 36203 ft | 439 kts | 256° |
| 2026-05-01 11:46 | 42.53012 | -35.89235 | 36204 ft | 440 kts | 256° |
| 2026-05-01 11:46 | 42.51641 | -35.97316 | 36205 ft | 440 kts | 256° |
| 2026-05-01 11:47 | 42.50264 | -36.05392 | 36207 ft | 439 kts | 256° |
| 2026-05-01 11:47 | 42.48883 | -36.13456 | 36205 ft | 440 kts | 256° |
| 2026-05-01 11:48 | 42.47496 | -36.21519 | 36212 ft | 440 kts | 255° |
| 2026-05-01 11:48 | 42.46100 | -36.29590 | 36204 ft | 440 kts | 255° |
| 2026-05-01 11:49 | 42.44700 | -36.37651 | 36202 ft | 440 kts | 255° |
| 2026-05-01 11:49 | 42.43298 | -36.45690 | 36202 ft | 439 kts | 255° |
| 2026-05-01 11:50 | 42.41897 | -36.53690 | 36200 ft | 439 kts | 255° |
| 2026-05-01 11:50 | 42.40480 | -36.61738 | 36202 ft | 440 kts | 255° |
| 2026-05-01 11:51 | 42.39057 | -36.69790 | 36191 ft | 439 kts | 255° |
| 2026-05-01 11:51 | 42.37633 | -36.77813 | 36185 ft | 438 kts | 255° |
| 2026-05-01 11:52 | 42.36204 | -36.85826 | 36186 ft | 439 kts | 255° |
| 2026-05-01 11:52 | 42.34770 | -36.93836 | 36187 ft | 438 kts | 255° |
| 2026-05-01 11:53 | 42.33328 | -37.01849 | 36187 ft | 438 kts | 255° |
| 2026-05-01 11:53 | 42.31882 | -37.09855 | 36189 ft | 438 kts | 255° |
| 2026-05-01 11:54 | 42.30430 | -37.17859 | 36180 ft | 438 kts | 255° |
| 2026-05-01 11:54 | 42.28974 | -37.25854 | 36184 ft | 438 kts | 255° |
| 2026-05-01 11:55 | 42.27522 | -37.33787 | 36182 ft | 438 kts | 255° |
| 2026-05-01 11:55 | 42.26054 | -37.41775 | 36179 ft | 438 kts | 255° |
| 2026-05-01 11:56 | 42.24582 | -37.49755 | 36183 ft | 438 kts | 254° |
| 2026-05-01 11:56 | 42.23105 | -37.57727 | 36179 ft | 438 kts | 254° |
| 2026-05-01 11:57 | 42.21874 | -37.64345 | 36182 ft | 438 kts | 254° |
| 2026-05-01 11:57 | 42.20135 | -37.73652 | 36180 ft | 438 kts | 254° |
| 2026-05-01 11:58 | 42.18641 | -37.81613 | 36180 ft | 438 kts | 254° |
| 2026-05-01 11:59 | 42.16391 | -37.93545 | 36178 ft | 438 kts | 254° |
| 2026-05-01 11:59 | 42.14883 | -38.01497 | 36176 ft | 437 kts | 254° |
| 2026-05-01 12:00 | 42.12624 | -38.13351 | 36178 ft | 437 kts | 254° |
| 2026-05-01 12:01 | 42.10344 | -38.25243 | 36176 ft | 437 kts | 254° |
| 2026-05-01 12:01 | 42.08819 | -38.33158 | 36174 ft | 437 kts | 254° |
| 2026-05-01 12:02 | 42.07299 | -38.41016 | 36169 ft | 436 kts | 254° |
| 2026-05-01 12:02 | 42.05766 | -38.48906 | 36167 ft | 436 kts | 253° |
| 2026-05-01 12:03 | 42.04226 | -38.56798 | 36162 ft | 436 kts | 253° |
| 2026-05-01 12:03 | 42.02682 | -38.64687 | 36169 ft | 436 kts | 253° |
| 2026-05-01 12:04 | 42.01134 | -38.72559 | 36165 ft | 434 kts | 253° |
| 2026-05-01 12:04 | 41.99585 | -38.80408 | 36158 ft | 434 kts | 253° |
| 2026-05-01 12:05 | 41.98043 | -38.88188 | 36158 ft | 434 kts | 253° |
| 2026-05-01 12:05 | 41.95702 | -38.99945 | 36157 ft | 434 kts | 253° |
| 2026-05-01 12:06 | 41.94135 | -39.07776 | 36157 ft | 433 kts | 253° |
| 2026-05-01 12:06 | 41.92567 | -39.15584 | 36157 ft | 433 kts | 253° |
| 2026-05-01 12:07 | 41.90993 | -39.23388 | 36157 ft | 433 kts | 253° |
| 2026-05-01 12:07 | 41.89414 | -39.31190 | 36158 ft | 433 kts | 253° |
| 2026-05-01 12:08 | 41.88097 | -39.37671 | 36152 ft | 433 kts | 253° |
| 2026-05-01 12:08 | 41.86252 | -39.46720 | 36149 ft | 433 kts | 253° |
| 2026-05-01 12:09 | 41.84657 | -39.54510 | 36151 ft | 433 kts | 253° |
| 2026-05-01 12:09 | 41.83316 | -39.61036 | 36148 ft | 433 kts | 253° |
| 2026-05-01 12:10 | 41.80918 | -39.72655 | 36160 ft | 433 kts | 253° |
| 2026-05-01 12:11 | 41.78499 | -39.84313 | 36143 ft | 433 kts | 253° |
| 2026-05-01 12:11 | 41.76879 | -39.92079 | 36140 ft | 433 kts | 253° |
| 2026-05-01 12:12 | 41.75253 | -39.99848 | 36140 ft | 433 kts | 253° |
| 2026-05-01 12:12 | 41.73623 | -40.07609 | 36140 ft | 433 kts | 253° |
| 2026-05-01 12:13 | 41.71988 | -40.15365 | 36138 ft | 433 kts | 253° |
| 2026-05-01 12:13 | 41.70346 | -40.23121 | 36138 ft | 433 kts | 252° |
| 2026-05-01 12:14 | 41.68709 | -40.30830 | 36135 ft | 433 kts | 252° |
| 2026-05-01 12:14 | 41.67057 | -40.38581 | 36135 ft | 433 kts | 252° |
| 2026-05-01 12:15 | 41.65400 | -40.46324 | 36137 ft | 433 kts | 252° |
| 2026-05-01 12:15 | 41.63737 | -40.54066 | 36132 ft | 433 kts | 252° |
| 2026-05-01 12:16 | 41.62070 | -40.61804 | 36132 ft | 433 kts | 252° |
| 2026-05-01 12:16 | 41.60396 | -40.69540 | 36127 ft | 433 kts | 252° |
| 2026-05-01 12:17 | 41.58717 | -40.77277 | 36127 ft | 433 kts | 252° |
| 2026-05-01 12:17 | 41.57031 | -40.85014 | 36127 ft | 434 kts | 252° |
| 2026-05-01 12:18 | 41.55346 | -40.92717 | 36129 ft | 435 kts | 252° |
| 2026-05-01 12:18 | 41.53647 | -41.00461 | 36130 ft | 435 kts | 252° |
| 2026-05-01 12:19 | 41.51941 | -41.08209 | 36124 ft | 435 kts | 252° |
| 2026-05-01 12:19 | 41.50230 | -41.15950 | 36124 ft | 435 kts | 252° |
| 2026-05-01 12:20 | 41.48514 | -41.23683 | 36124 ft | 435 kts | 252° |
| 2026-05-01 12:20 | 41.46792 | -41.31423 | 36121 ft | 435 kts | 252° |
| 2026-05-01 12:21 | 41.45074 | -41.39111 | 36121 ft | 435 kts | 252° |
| 2026-05-01 12:21 | 41.43341 | -41.46842 | 36119 ft | 435 kts | 252° |
| 2026-05-01 12:22 | 41.41602 | -41.54575 | 36116 ft | 435 kts | 252° |
| 2026-05-01 12:22 | 41.39860 | -41.62292 | 36116 ft | 435 kts | 252° |
| 2026-05-01 12:23 | 41.38113 | -41.70004 | 36113 ft | 435 kts | 252° |
| 2026-05-01 12:23 | 41.36360 | -41.77715 | 36113 ft | 435 kts | 252° |
| 2026-05-01 12:24 | 41.34601 | -41.85426 | 36114 ft | 436 kts | 252° |
| 2026-05-01 12:24 | 41.32830 | -41.93163 | 36110 ft | 438 kts | 252° |
| 2026-05-01 12:25 | 41.30155 | -42.04794 | 36110 ft | 439 kts | 252° |
| 2026-05-01 12:26 | 41.28373 | -42.12512 | 36105 ft | 439 kts | 252° |
| 2026-05-01 12:26 | 41.25679 | -42.24131 | 36103 ft | 439 kts | 252° |
| 2026-05-01 12:27 | 41.22972 | -42.35744 | 36103 ft | 438 kts | 252° |
| 2026-05-01 12:28 | 41.20256 | -42.47337 | 36099 ft | 438 kts | 252° |
| 2026-05-01 12:29 | 41.17539 | -42.58875 | 36093 ft | 438 kts | 252° |
| 2026-05-01 12:29 | 41.14802 | -42.70442 | 36094 ft | 438 kts | 252° |
| 2026-05-01 12:30 | 41.12052 | -42.82002 | 36097 ft | 438 kts | 252° |
| 2026-05-01 12:31 | 41.10211 | -42.89708 | 36097 ft | 439 kts | 252° |
| 2026-05-01 12:31 | 41.08359 | -42.97433 | 36092 ft | 440 kts | 252° |
| 2026-05-01 12:32 | 41.06511 | -43.05116 | 36093 ft | 440 kts | 252° |
| 2026-05-01 12:32 | 41.03711 | -43.16711 | 36092 ft | 440 kts | 252° |
| 2026-05-01 12:33 | 41.01838 | -43.24437 | 36089 ft | 440 kts | 252° |
| 2026-05-01 12:33 | 40.99961 | -43.32151 | 36091 ft | 440 kts | 252° |
| 2026-05-01 12:34 | 40.98078 | -43.39867 | 36089 ft | 440 kts | 252° |
| 2026-05-01 12:34 | 40.96188 | -43.47585 | 36085 ft | 440 kts | 252° |
| 2026-05-01 12:35 | 40.94295 | -43.55288 | 36086 ft | 440 kts | 252° |
| 2026-05-01 12:35 | 40.92398 | -43.62984 | 36086 ft | 440 kts | 252° |
| 2026-05-01 12:36 | 40.90507 | -43.70627 | 36086 ft | 440 kts | 252° |
| 2026-05-01 12:36 | 40.88598 | -43.78322 | 36086 ft | 440 kts | 252° |
| 2026-05-01 12:37 | 40.86683 | -43.86016 | 36082 ft | 440 kts | 252° |
| 2026-05-01 12:37 | 40.84764 | -43.93698 | 36084 ft | 440 kts | 252° |
| 2026-05-01 12:38 | 40.82839 | -44.01381 | 36083 ft | 440 kts | 252° |
| 2026-05-01 12:38 | 40.80920 | -44.09016 | 36083 ft | 440 kts | 252° |
| 2026-05-01 12:39 | 40.78986 | -44.16685 | 36083 ft | 440 kts | 252° |
| 2026-05-01 12:39 | 40.77048 | -44.24348 | 36081 ft | 440 kts | 252° |
| 2026-05-01 12:40 | 40.75102 | -44.32013 | 36078 ft | 440 kts | 252° |
| 2026-05-01 12:40 | 40.73152 | -44.39673 | 36078 ft | 440 kts | 252° |
| 2026-05-01 12:41 | 40.71197 | -44.47327 | 36077 ft | 440 kts | 252° |
| 2026-05-01 12:41 | 40.69238 | -44.54973 | 36078 ft | 441 kts | 252° |
| 2026-05-01 12:42 | 40.67270 | -44.62631 | 36077 ft | 441 kts | 252° |
| 2026-05-01 12:42 | 40.65312 | -44.70226 | 36075 ft | 440 kts | 252° |
| 2026-05-01 12:43 | 40.63336 | -44.77863 | 36075 ft | 441 kts | 252° |
| 2026-05-01 12:43 | 40.61354 | -44.85502 | 36075 ft | 441 kts | 252° |
| 2026-05-01 12:44 | 40.59369 | -44.93129 | 36072 ft | 441 kts | 252° |
| 2026-05-01 12:45 | 40.55381 | -45.08382 | 36069 ft | 441 kts | 252° |
| 2026-05-01 12:45 | 40.53378 | -45.16005 | 36070 ft | 441 kts | 252° |
| 2026-05-01 12:46 | 40.51373 | -45.23616 | 36070 ft | 441 kts | 252° |
| 2026-05-01 12:46 | 40.49372 | -45.31184 | 36070 ft | 441 kts | 252° |
| 2026-05-01 12:47 | 40.47356 | -45.38786 | 36069 ft | 441 kts | 252° |
| 2026-05-01 12:47 | 40.45335 | -45.46387 | 36067 ft | 441 kts | 252° |
| 2026-05-01 12:48 | 40.43309 | -45.53980 | 36067 ft | 441 kts | 252° |
| 2026-05-01 12:48 | 40.41278 | -45.61569 | 36067 ft | 441 kts | 252° |
| 2026-05-01 12:49 | 40.39241 | -45.69161 | 36066 ft | 441 kts | 252° |
| 2026-05-01 12:49 | 40.37198 | -45.76748 | 36064 ft | 441 kts | 252° |
| 2026-05-01 12:50 | 40.35152 | -45.84324 | 36071 ft | 441 kts | 252° |
| 2026-05-01 12:50 | 40.33102 | -45.91892 | 36067 ft | 440 kts | 252° |
| 2026-05-01 12:51 | 40.31060 | -45.99408 | 36068 ft | 441 kts | 252° |
| 2026-05-01 12:52 | 40.27969 | -46.10746 | 36064 ft | 441 kts | 252° |
| 2026-05-01 12:52 | 40.24867 | -46.22069 | 36066 ft | 440 kts | 252° |
| 2026-05-01 12:53 | 40.21749 | -46.33402 | 36064 ft | 441 kts | 252° |
| 2026-05-01 12:54 | 40.19665 | -46.40948 | 36062 ft | 441 kts | 252° |
| 2026-05-01 12:54 | 40.16543 | -46.52212 | 36064 ft | 441 kts | 252° |
| 2026-05-01 12:55 | 40.13394 | -46.63521 | 36064 ft | 442 kts | 252° |
| 2026-05-01 12:56 | 40.11287 | -46.71061 | 36062 ft | 442 kts | 252° |
| 2026-05-01 12:56 | 40.09177 | -46.78591 | 36060 ft | 441 kts | 252° |
| 2026-05-01 12:57 | 40.07061 | -46.86116 | 36056 ft | 442 kts | 252° |
| 2026-05-01 12:57 | 40.03871 | -46.97425 | 36064 ft | 443 kts | 252° |
| 2026-05-01 12:58 | 40.01738 | -47.04958 | 36064 ft | 443 kts | 252° |
| 2026-05-01 12:59 | 39.98891 | -47.14981 | 36064 ft | 443 kts | 252° |
| 2026-05-01 12:59 | 39.95322 | -47.27489 | 36067 ft | 443 kts | 251° |
| 2026-05-01 13:00 | 39.92440 | -47.37541 | 36071 ft | 442 kts | 251° |
| 2026-05-01 13:01 | 39.89199 | -47.48808 | 36065 ft | 443 kts | 252° |
| 2026-05-01 13:02 | 39.85956 | -47.60029 | 36068 ft | 443 kts | 251° |
| 2026-05-01 13:07 | 39.61722 | -48.42413 | 36061 ft | 444 kts | 251° |
| 2026-05-01 13:08 | 39.59489 | -48.49877 | 36059 ft | 444 kts | 251° |
| 2026-05-01 13:08 | 39.57250 | -48.57339 | 36056 ft | 444 kts | 251° |
| 2026-05-01 13:09 | 39.55006 | -48.64801 | 36063 ft | 444 kts | 250° |
| 2026-05-01 13:09 | 39.52758 | -48.72252 | 36059 ft | 444 kts | 250° |
| 2026-05-01 13:10 | 39.50522 | -48.79644 | 36053 ft | 444 kts | 250° |
| 2026-05-01 13:10 | 39.48266 | -48.87080 | 36059 ft | 443 kts | 250° |
| 2026-05-01 13:11 | 39.46005 | -48.94514 | 36060 ft | 443 kts | 250° |
| 2026-05-01 13:11 | 39.43743 | -49.01933 | 36061 ft | 443 kts | 250° |
| 2026-05-01 13:12 | 39.41473 | -49.09354 | 36062 ft | 443 kts | 250° |
| 2026-05-01 13:12 | 39.39201 | -49.16764 | 36058 ft | 443 kts | 251° |
| 2026-05-01 13:13 | 39.36925 | -49.24167 | 36058 ft | 443 kts | 251° |
| 2026-05-01 13:13 | 39.34646 | -49.31558 | 36058 ft | 443 kts | 250° |
| 2026-05-01 13:14 | 39.32360 | -49.38951 | 36055 ft | 443 kts | 251° |
| 2026-05-01 13:14 | 39.30087 | -49.46285 | 36058 ft | 442 kts | 251° |
| 2026-05-01 13:15 | 39.27798 | -49.53649 | 36064 ft | 442 kts | 251° |
| 2026-05-01 13:15 | 39.25502 | -49.61014 | 36063 ft | 442 kts | 251° |
| 2026-05-01 13:16 | 39.23207 | -49.68358 | 36057 ft | 441 kts | 251° |
| 2026-05-01 13:16 | 39.20911 | -49.75687 | 36063 ft | 440 kts | 251° |
| 2026-05-01 13:17 | 39.16316 | -49.90295 | 36060 ft | 440 kts | 251° |
| 2026-05-01 13:18 | 39.12854 | -50.01251 | 36060 ft | 440 kts | 251° |
| 2026-05-01 13:18 | 39.10543 | -50.08541 | 36063 ft | 440 kts | 251° |
| 2026-05-01 13:19 | 39.08226 | -50.15830 | 36062 ft | 440 kts | 251° |
| 2026-05-01 13:20 | 39.04743 | -50.26747 | 36066 ft | 439 kts | 251° |
| 2026-05-01 13:20 | 39.02423 | -50.33999 | 36056 ft | 438 kts | 251° |
| 2026-05-01 13:21 | 38.98937 | -50.44860 | 36051 ft | 438 kts | 251° |
| 2026-05-01 13:21 | 38.96624 | -50.52041 | 36056 ft | 436 kts | 252° |
| 2026-05-01 13:22 | 38.94300 | -50.59236 | 36067 ft | 435 kts | 252° |
| 2026-05-01 13:22 | 38.91977 | -50.66416 | 36067 ft | 435 kts | 252° |
| 2026-05-01 13:23 | 38.89649 | -50.73592 | 36043 ft | 435 kts | 252° |
| 2026-05-01 13:23 | 38.87318 | -50.80756 | 36059 ft | 435 kts | 252° |
| 2026-05-01 13:24 | 38.84984 | -50.87911 | 36059 ft | 434 kts | 252° |
| 2026-05-01 13:25 | 38.81481 | -50.98618 | 36058 ft | 434 kts | 252° |
| 2026-05-01 13:25 | 38.79140 | -51.05751 | 36056 ft | 433 kts | 252° |
| 2026-05-01 13:26 | 38.76807 | -51.12841 | 36057 ft | 431 kts | 252° |
| 2026-05-01 13:26 | 38.74484 | -51.19883 | 36056 ft | 431 kts | 252° |
| 2026-05-01 13:27 | 38.72148 | -51.26950 | 36056 ft | 431 kts | 252° |
| 2026-05-01 13:27 | 38.68639 | -51.37527 | 36057 ft | 428 kts | 251° |
| 2026-05-01 13:28 | 38.65144 | -51.48027 | 36054 ft | 427 kts | 251° |
| 2026-05-01 13:29 | 38.60472 | -51.62002 | 36056 ft | 426 kts | 251° |
| 2026-05-01 13:31 | 38.53486 | -51.82773 | 36047 ft | 425 kts | 251° |
| 2026-05-01 13:32 | 38.47636 | -52.00051 | 36053 ft | 424 kts | 251° |
| 2026-05-01 13:33 | 38.41767 | -52.17282 | 36052 ft | 423 kts | 250° |
| 2026-05-01 13:34 | 38.37084 | -52.30959 | 36047 ft | 422 kts | 250° |
| 2026-05-01 13:35 | 38.33554 | -52.41228 | 36045 ft | 422 kts | 250° |
| 2026-05-01 13:36 | 38.30016 | -52.51481 | 36046 ft | 422 kts | 250° |
| 2026-05-01 13:36 | 38.26471 | -52.61722 | 36049 ft | 421 kts | 250° |
| 2026-05-01 13:37 | 38.24500 | -52.67399 | 36043 ft | 421 kts | 250° |
| 2026-05-01 13:37 | 38.21728 | -52.75364 | 36042 ft | 421 kts | 250° |
| 2026-05-01 13:38 | 38.18176 | -52.85542 | 36025 ft | 421 kts | 249° |
| 2026-05-01 13:39 | 38.15791 | -52.92356 | 36041 ft | 422 kts | 249° |
| 2026-05-01 13:39 | 38.13401 | -52.99167 | 36038 ft | 422 kts | 249° |
| 2026-05-01 13:40 | 38.11006 | -53.05978 | 36039 ft | 422 kts | 249° |
| 2026-05-01 13:40 | 38.08605 | -53.12790 | 36025 ft | 422 kts | 249° |
| 2026-05-01 13:41 | 38.06202 | -53.19593 | 36038 ft | 422 kts | 249° |
| 2026-05-01 13:41 | 38.03791 | -53.26400 | 36036 ft | 422 kts | 249° |
| 2026-05-01 13:42 | 38.01396 | -53.33150 | 36035 ft | 423 kts | 249° |
| 2026-05-01 13:42 | 37.98979 | -53.39944 | 36041 ft | 423 kts | 249° |
| 2026-05-01 13:43 | 37.96558 | -53.46734 | 36038 ft | 422 kts | 249° |
| 2026-05-01 13:43 | 37.94139 | -53.53505 | 36023 ft | 421 kts | 249° |
| 2026-05-01 13:44 | 37.91717 | -53.60268 | 36031 ft | 421 kts | 249° |
| 2026-05-01 13:44 | 37.89289 | -53.67034 | 36028 ft | 421 kts | 249° |
| 2026-05-01 13:45 | 37.86864 | -53.73773 | 36031 ft | 420 kts | 249° |
| 2026-05-01 13:45 | 37.84439 | -53.80499 | 36033 ft | 420 kts | 249° |
| 2026-05-01 13:46 | 37.82025 | -53.87180 | 36033 ft | 420 kts | 248° |
| 2026-05-01 13:46 | 37.79593 | -53.93897 | 36025 ft | 420 kts | 249° |
| 2026-05-01 13:47 | 37.77163 | -54.00591 | 36028 ft | 418 kts | 249° |
| 2026-05-01 13:47 | 37.75128 | -54.06185 | 36022 ft | 418 kts | 248° |
| 2026-05-01 13:48 | 37.72694 | -54.12864 | 36022 ft | 418 kts | 248° |
| 2026-05-01 13:48 | 37.70260 | -54.19530 | 36012 ft | 418 kts | 248° |
| 2026-05-01 13:49 | 37.67841 | -54.26139 | 36030 ft | 417 kts | 248° |
| 2026-05-01 13:49 | 37.65400 | -54.32793 | 36026 ft | 418 kts | 248° |
| 2026-05-01 13:50 | 37.62952 | -54.39452 | 36022 ft | 418 kts | 248° |
| 2026-05-01 13:50 | 37.60498 | -54.46111 | 36007 ft | 418 kts | 248° |
| 2026-05-01 13:51 | 37.58044 | -54.52759 | 36025 ft | 418 kts | 248° |
| 2026-05-01 13:51 | 37.55581 | -54.59415 | 36019 ft | 419 kts | 247° |
| 2026-05-01 13:52 | 37.53111 | -54.66073 | 36018 ft | 419 kts | 247° |
| 2026-05-01 13:52 | 37.50655 | -54.72681 | 36020 ft | 419 kts | 247° |
| 2026-05-01 13:53 | 37.48179 | -54.79329 | 36022 ft | 419 kts | 247° |
| 2026-05-01 13:53 | 37.44452 | -54.89307 | 36017 ft | 420 kts | 247° |
| 2026-05-01 13:54 | 37.41965 | -54.95950 | 36018 ft | 420 kts | 247° |
| 2026-05-01 13:54 | 37.39470 | -55.02598 | 36005 ft | 420 kts | 247° |
| 2026-05-01 13:55 | 37.36979 | -55.09219 | 36015 ft | 418 kts | 247° |
| 2026-05-01 13:55 | 37.34489 | -55.15825 | 36015 ft | 418 kts | 247° |
| 2026-05-01 13:56 | 37.31991 | -55.22439 | 36013 ft | 418 kts | 247° |
| 2026-05-01 13:56 | 37.29492 | -55.29040 | 36017 ft | 418 kts | 247° |
| 2026-05-01 13:57 | 37.27010 | -55.35583 | 36012 ft | 417 kts | 247° |
| 2026-05-01 13:57 | 37.24515 | -55.42147 | 36009 ft | 417 kts | 247° |
| 2026-05-01 13:58 | 37.22016 | -55.48707 | 36008 ft | 417 kts | 247° |
| 2026-05-01 13:58 | 37.19511 | -55.55269 | 36009 ft | 417 kts | 246° |
| 2026-05-01 13:59 | 37.17007 | -55.61816 | 36002 ft | 416 kts | 246° |
| 2026-05-01 13:59 | 37.14501 | -55.68352 | 35999 ft | 416 kts | 246° |
| 2026-05-01 14:00 | 37.11996 | -55.74874 | 36004 ft | 416 kts | 246° |
| 2026-05-01 14:00 | 37.09484 | -55.81399 | 36003 ft | 415 kts | 246° |
| 2026-05-01 14:01 | 37.06973 | -55.87907 | 35994 ft | 415 kts | 246° |
| 2026-05-01 14:01 | 37.04453 | -55.94427 | 35998 ft | 416 kts | 246° |
| 2026-05-01 14:02 | 37.01930 | -56.00940 | 35994 ft | 416 kts | 246° |
| 2026-05-01 14:02 | 36.99402 | -56.07454 | 35994 ft | 416 kts | 246° |
| 2026-05-01 14:03 | 36.96887 | -56.13918 | 35981 ft | 416 kts | 246° |
| 2026-05-01 14:03 | 36.94347 | -56.20436 | 35993 ft | 418 kts | 246° |
| 2026-05-01 14:04 | 36.91797 | -56.26965 | 35996 ft | 418 kts | 246° |
| 2026-05-01 14:04 | 36.89243 | -56.33492 | 35987 ft | 418 kts | 246° |
| 2026-05-01 14:05 | 36.86688 | -56.40004 | 35991 ft | 417 kts | 246° |
| 2026-05-01 14:05 | 36.84128 | -56.46518 | 35994 ft | 418 kts | 246° |
| 2026-05-01 14:06 | 36.81556 | -56.53051 | 35975 ft | 419 kts | 246° |
| 2026-05-01 14:06 | 36.78984 | -56.59569 | 35981 ft | 418 kts | 246° |
| 2026-05-01 14:07 | 36.76414 | -56.66066 | 35973 ft | 417 kts | 246° |
| 2026-05-01 14:08 | 36.72577 | -56.75746 | 35981 ft | 417 kts | 246° |
| 2026-05-01 14:08 | 36.70002 | -56.82224 | 35982 ft | 417 kts | 246° |
| 2026-05-01 14:09 | 36.67426 | -56.88693 | 35982 ft | 416 kts | 246° |
| 2026-05-01 14:09 | 36.64854 | -56.95137 | 35979 ft | 415 kts | 246° |
| 2026-05-01 14:10 | 36.62282 | -57.01571 | 35971 ft | 415 kts | 246° |
| 2026-05-01 14:10 | 36.59722 | -57.07960 | 35973 ft | 415 kts | 246° |
| 2026-05-01 14:11 | 36.57141 | -57.14390 | 35974 ft | 414 kts | 246° |
| 2026-05-01 14:11 | 36.53274 | -57.23996 | 35967 ft | 414 kts | 246° |
| 2026-05-01 14:12 | 36.50692 | -57.30396 | 35959 ft | 414 kts | 246° |
| 2026-05-01 14:12 | 36.48106 | -57.36794 | 35965 ft | 414 kts | 246° |
| 2026-05-01 14:13 | 36.45951 | -57.42115 | 35964 ft | 414 kts | 245° |
| 2026-05-01 14:13 | 36.42946 | -57.49518 | 35961 ft | 413 kts | 245° |
| 2026-05-01 14:14 | 36.40359 | -57.55879 | 35960 ft | 413 kts | 245° |
| 2026-05-01 14:14 | 36.37767 | -57.62240 | 35960 ft | 413 kts | 245° |
| 2026-05-01 14:15 | 36.35166 | -57.68613 | 35961 ft | 413 kts | 245° |
| 2026-05-01 14:15 | 36.32563 | -57.74975 | 35957 ft | 413 kts | 245° |
| 2026-05-01 14:16 | 36.29959 | -57.81328 | 35956 ft | 413 kts | 245° |
| 2026-05-01 14:16 | 36.27349 | -57.87683 | 35951 ft | 413 kts | 245° |
| 2026-05-01 14:17 | 36.24735 | -57.94035 | 35958 ft | 414 kts | 245° |
| 2026-05-01 14:17 | 36.22116 | -58.00388 | 35957 ft | 414 kts | 245° |
| 2026-05-01 14:18 | 36.19511 | -58.06694 | 35958 ft | 415 kts | 245° |
| 2026-05-01 14:18 | 36.17309 | -58.12013 | 35958 ft | 415 kts | 245° |
| 2026-05-01 14:19 | 36.14246 | -58.19400 | 35954 ft | 415 kts | 245° |
| 2026-05-01 14:19 | 36.11610 | -58.25745 | 35956 ft | 414 kts | 245° |
| 2026-05-01 14:20 | 36.07659 | -58.35229 | 35955 ft | 413 kts | 245° |
| 2026-05-01 14:21 | 36.05023 | -58.41544 | 35955 ft | 413 kts | 244° |
| 2026-05-01 14:21 | 36.02382 | -58.47856 | 35940 ft | 413 kts | 245° |
| 2026-05-01 14:22 | 35.98410 | -58.57328 | 35951 ft | 414 kts | 244° |
| 2026-05-01 14:22 | 35.95772 | -58.63602 | 35951 ft | 414 kts | 244° |
| 2026-05-01 14:23 | 35.93097 | -58.69955 | 35950 ft | 414 kts | 244° |
| 2026-05-01 14:23 | 35.90434 | -58.76264 | 35946 ft | 414 kts | 244° |
| 2026-05-01 14:24 | 35.87783 | -58.82536 | 35945 ft | 415 kts | 244° |
| 2026-05-01 14:24 | 35.85106 | -58.88856 | 35945 ft | 416 kts | 244° |
| 2026-05-01 14:25 | 35.82420 | -58.95183 | 35948 ft | 416 kts | 244° |
| 2026-05-01 14:25 | 35.79738 | -59.01491 | 35946 ft | 416 kts | 244° |
| 2026-05-01 14:26 | 35.75705 | -59.10954 | 35946 ft | 417 kts | 244° |
| 2026-05-01 14:27 | 35.73005 | -59.17275 | 35941 ft | 417 kts | 244° |
| 2026-05-01 14:27 | 35.70298 | -59.23598 | 35944 ft | 417 kts | 244° |
| 2026-05-01 14:28 | 35.66234 | -59.33070 | 35943 ft | 417 kts | 244° |
| 2026-05-01 14:28 | 35.63537 | -59.39342 | 35930 ft | 418 kts | 244° |
| 2026-05-01 14:29 | 35.60808 | -59.45675 | 35941 ft | 419 kts | 244° |
| 2026-05-01 14:30 | 35.55344 | -59.58318 | 35938 ft | 419 kts | 244° |
| 2026-05-01 14:31 | 35.51240 | -59.67786 | 35937 ft | 418 kts | 244° |
| 2026-05-01 14:31 | 35.48499 | -59.74092 | 35935 ft | 419 kts | 244° |
| 2026-05-01 14:32 | 35.45754 | -59.80397 | 35935 ft | 419 kts | 244° |
| 2026-05-01 14:32 | 35.43021 | -59.86663 | 35933 ft | 419 kts | 244° |
| 2026-05-01 14:33 | 35.40270 | -59.92959 | 35935 ft | 419 kts | 244° |
| 2026-05-01 14:33 | 35.37512 | -59.99259 | 35904 ft | 419 kts | 244° |
| 2026-05-01 14:34 | 35.34750 | -60.05555 | 35936 ft | 420 kts | 244° |
| 2026-05-01 14:34 | 35.31981 | -60.11856 | 35926 ft | 420 kts | 244° |
| 2026-05-01 14:35 | 35.29208 | -60.18155 | 35941 ft | 420 kts | 244° |
| 2026-05-01 14:35 | 35.26905 | -60.23375 | 35927 ft | 419 kts | 244° |
| 2026-05-01 14:36 | 35.24131 | -60.29653 | 35921 ft | 419 kts | 244° |
| 2026-05-01 14:36 | 35.21352 | -60.35933 | 35925 ft | 420 kts | 244° |
| 2026-05-01 14:37 | 35.18564 | -60.42221 | 35924 ft | 420 kts | 244° |
| 2026-05-01 14:37 | 35.15775 | -60.48499 | 35929 ft | 420 kts | 244° |
| 2026-05-01 14:38 | 35.12985 | -60.54767 | 35920 ft | 419 kts | 244° |
| 2026-05-01 14:38 | 35.10195 | -60.61024 | 35925 ft | 419 kts | 244° |
| 2026-05-01 14:39 | 35.07416 | -60.67245 | 35923 ft | 420 kts | 244° |
| 2026-05-01 14:39 | 35.04616 | -60.73502 | 35922 ft | 420 kts | 244° |
| 2026-05-01 14:40 | 35.01815 | -60.79749 | 35920 ft | 418 kts | 245° |
| 2026-05-01 14:40 | 34.99022 | -60.85965 | 35921 ft | 417 kts | 245° |
| 2026-05-01 14:41 | 34.96229 | -60.92175 | 35918 ft | 417 kts | 245° |
| 2026-05-01 14:41 | 34.93452 | -60.98335 | 35922 ft | 417 kts | 245° |
| 2026-05-01 14:42 | 34.90654 | -61.04531 | 35922 ft | 417 kts | 245° |
| 2026-05-01 14:42 | 34.87858 | -61.10710 | 35914 ft | 415 kts | 245° |
| 2026-05-01 14:43 | 34.85068 | -61.16865 | 35912 ft | 415 kts | 245° |
| 2026-05-01 14:43 | 34.82274 | -61.23020 | 35911 ft | 415 kts | 245° |
| 2026-05-01 14:44 | 34.79479 | -61.29166 | 35911 ft | 415 kts | 245° |
| 2026-05-01 14:44 | 34.75278 | -61.38383 | 35905 ft | 414 kts | 245° |
| 2026-05-01 14:45 | 34.71087 | -61.47551 | 35906 ft | 413 kts | 245° |
| 2026-05-01 14:46 | 34.68306 | -61.53622 | 35904 ft | 413 kts | 245° |
| 2026-05-01 14:46 | 34.64105 | -61.62772 | 35903 ft | 413 kts | 245° |
| 2026-05-01 14:47 | 34.61305 | -61.68858 | 35906 ft | 413 kts | 245° |
| 2026-05-01 14:48 | 34.57099 | -61.77980 | 35897 ft | 413 kts | 245° |
| 2026-05-01 14:48 | 34.52889 | -61.87085 | 35897 ft | 413 kts | 245° |
| 2026-05-01 14:49 | 34.47286 | -61.99162 | 35901 ft | 408 kts | 245° |
| 2026-05-01 14:50 | 34.41713 | -62.11146 | 35894 ft | 408 kts | 245° |
| 2026-05-01 14:51 | 34.36796 | -62.19664 | 35867 ft | 413 kts | 239° |
| 2026-05-01 14:52 | 34.31559 | -62.27933 | 35899 ft | 413 kts | 239° |
| 2026-05-01 14:53 | 34.26306 | -62.36193 | 35890 ft | 413 kts | 239° |
| 2026-05-01 14:53 | 34.22833 | -62.41663 | 35905 ft | 412 kts | 239° |
| 2026-05-01 14:54 | 34.19337 | -62.47166 | 35879 ft | 412 kts | 239° |
| 2026-05-01 14:54 | 34.15843 | -62.52656 | 35897 ft | 412 kts | 239° |
| 2026-05-01 14:55 | 34.12348 | -62.58140 | 35892 ft | 412 kts | 239° |
| 2026-05-01 14:55 | 34.08854 | -62.63613 | 35896 ft | 411 kts | 239° |
| 2026-05-01 14:56 | 34.05356 | -62.69085 | 35890 ft | 411 kts | 239° |
| 2026-05-01 14:56 | 34.01859 | -62.74546 | 35889 ft | 411 kts | 239° |
| 2026-05-01 14:57 | 33.98357 | -62.80007 | 35894 ft | 412 kts | 239° |
| 2026-05-01 14:57 | 33.93124 | -62.88150 | 35894 ft | 411 kts | 239° |
| 2026-05-01 14:58 | 33.89624 | -62.93587 | 35898 ft | 411 kts | 239° |
| 2026-05-01 14:58 | 33.86123 | -62.99019 | 35879 ft | 411 kts | 239° |
| 2026-05-01 14:59 | 33.82613 | -63.04456 | 35902 ft | 412 kts | 239° |
| 2026-05-01 14:59 | 33.79096 | -63.09895 | 35899 ft | 412 kts | 239° |
| 2026-05-01 15:00 | 33.73820 | -63.18037 | 35905 ft | 411 kts | 239° |
| 2026-05-01 15:01 | 33.70307 | -63.23448 | 35906 ft | 410 kts | 239° |
| 2026-05-01 15:01 | 33.66793 | -63.28856 | 35909 ft | 411 kts | 239° |
| 2026-05-01 15:02 | 33.63272 | -63.34266 | 35905 ft | 412 kts | 239° |
| 2026-05-01 15:02 | 33.59743 | -63.39679 | 35907 ft | 412 kts | 239° |
| 2026-05-01 15:03 | 33.56238 | -63.45046 | 35915 ft | 411 kts | 239° |
| 2026-05-01 15:03 | 33.52697 | -63.50461 | 35915 ft | 411 kts | 239° |
| 2026-05-01 15:04 | 33.49164 | -63.55856 | 35907 ft | 412 kts | 239° |
| 2026-05-01 15:04 | 33.45615 | -63.61270 | 35916 ft | 413 kts | 239° |
| 2026-05-01 15:05 | 33.42059 | -63.66683 | 35915 ft | 413 kts | 239° |
| 2026-05-01 15:05 | 33.38502 | -63.72090 | 35919 ft | 413 kts | 239° |
| 2026-05-01 15:06 | 33.34944 | -63.77490 | 35923 ft | 413 kts | 239° |
| 2026-05-01 15:06 | 33.31384 | -63.82886 | 35922 ft | 414 kts | 239° |
| 2026-05-01 15:07 | 33.27832 | -63.88265 | 35922 ft | 415 kts | 239° |
| 2026-05-01 15:07 | 33.24251 | -63.93676 | 35922 ft | 415 kts | 239° |
| 2026-05-01 15:08 | 33.20666 | -63.99086 | 35920 ft | 415 kts | 239° |
| 2026-05-01 15:08 | 33.17083 | -64.04484 | 35925 ft | 415 kts | 239° |
| 2026-05-01 15:09 | 33.13496 | -64.09882 | 35925 ft | 415 kts | 239° |
| 2026-05-01 15:09 | 33.09910 | -64.15269 | 35925 ft | 415 kts | 239° |
| 2026-05-01 15:10 | 33.06319 | -64.20656 | 35927 ft | 415 kts | 239° |
| 2026-05-01 15:10 | 33.00929 | -64.28729 | 35930 ft | 415 kts | 239° |
| 2026-05-01 15:11 | 32.95535 | -64.36789 | 35921 ft | 415 kts | 239° |
| 2026-05-01 15:12 | 32.91946 | -64.42145 | 35930 ft | 416 kts | 239° |
| 2026-05-01 15:12 | 32.86515 | -64.50228 | 35927 ft | 417 kts | 239° |
| 2026-05-01 15:14 | 32.77459 | -64.63672 | 35924 ft | 417 kts | 238° |
| 2026-05-01 15:14 | 32.72001 | -64.71753 | 35922 ft | 418 kts | 238° |
| 2026-05-01 15:15 | 32.64732 | -64.82483 | 35925 ft | 418 kts | 238° |
| 2026-05-01 15:16 | 32.57429 | -64.93237 | 35933 ft | 419 kts | 238° |
| 2026-05-01 15:18 | 32.48292 | -65.06644 | 35955 ft | 419 kts | 238° |
| 2026-05-01 15:19 | 32.40961 | -65.17368 | 35945 ft | 419 kts | 238° |
| 2026-05-01 15:19 | 32.35448 | -65.25411 | 35949 ft | 419 kts | 238° |
| 2026-05-01 15:20 | 32.29930 | -65.33445 | 35955 ft | 419 kts | 238° |
| 2026-05-01 15:21 | 32.26253 | -65.38789 | 35952 ft | 419 kts | 238° |
| 2026-05-01 15:21 | 32.22574 | -65.44128 | 35934 ft | 419 kts | 238° |
| 2026-05-01 15:22 | 32.17044 | -65.52142 | 35951 ft | 420 kts | 238° |
| 2026-05-01 15:22 | 32.13970 | -65.56588 | 35957 ft | 420 kts | 238° |
| 2026-05-01 15:23 | 32.10269 | -65.61934 | 35965 ft | 420 kts | 238° |
| 2026-05-01 15:23 | 32.06568 | -65.67270 | 35957 ft | 420 kts | 238° |
| 2026-05-01 15:24 | 32.02862 | -65.72608 | 35947 ft | 420 kts | 238° |
| 2026-05-01 15:24 | 31.99157 | -65.77940 | 35957 ft | 421 kts | 238° |
| 2026-05-01 15:25 | 31.95437 | -65.83282 | 35960 ft | 421 kts | 238° |
| 2026-05-01 15:25 | 31.91744 | -65.88578 | 35960 ft | 421 kts | 238° |
| 2026-05-01 15:26 | 31.88023 | -65.93907 | 35964 ft | 421 kts | 238° |
| 2026-05-01 15:26 | 31.84298 | -65.99235 | 35941 ft | 421 kts | 238° |
| 2026-05-01 15:27 | 31.80568 | -66.04563 | 35963 ft | 422 kts | 238° |
| 2026-05-01 15:28 | 31.74961 | -66.12558 | 35963 ft | 422 kts | 237° |
| 2026-05-01 15:28 | 31.71244 | -66.17848 | 35963 ft | 422 kts | 237° |
| 2026-05-01 15:29 | 31.65627 | -66.25829 | 35967 ft | 422 kts | 237° |
| 2026-05-01 15:30 | 31.58761 | -66.35562 | 35970 ft | 423 kts | 237° |
| 2026-05-01 15:31 | 31.46852 | -66.52384 | 35972 ft | 423 kts | 237° |
| 2026-05-01 15:32 | 31.39319 | -66.62987 | 35972 ft | 423 kts | 237° |
| 2026-05-01 15:34 | 31.28026 | -66.78828 | 35975 ft | 423 kts | 237° |